Time;durP1;ratioP1;P1;durP2;ratioP2;P2;SDS_P1;SDS_P2;PMS_P1;PMS_P2;Temp;Humidity;BMP_temperature;BMP_pressure;BME280_temperature;BME280_humidity;BME280_pressure;Samples;Min_cycle;Max_cycle;Signal;HPM_P1;HPM_P2
2021/07/10 00:03:25;;;;;;;8.78;4.15;;;;;;;18.25;94.29;100585.61;5214542;55;1138908;-87
2021/07/10 00:08:31;;;;;;;5.55;4.90;;;;;;;18.22;94.16;100587.28;5215570;55;1138753;-88
2021/07/10 00:13:37;;;;;;;6.58;4.33;;;;;;;18.11;94.53;100595.64;5136265;55;1139334;-84
2021/07/10 00:18:43;;;;;;;3.90;3.67;;;;;;;17.96;93.89;100596.80;5128456;56;1138990;-80
2021/07/10 00:23:49;;;;;;;10.64;5.90;;;;;;;17.82;93.68;100604.97;5129049;56;1138845;-78
2021/07/10 00:28:55;;;;;;;5.17;4.87;;;;;;;17.76;93.48;100593.56;5129920;56;1140804;-83
2021/07/10 00:34:00;;;;;;;6.80;4.75;;;;;;;17.73;93.45;100595.22;5129577;56;1138924;-79
2021/07/10 00:39:07;;;;;;;4.22;3.92;;;;;;;17.70;93.31;100601.42;5129555;56;1138659;-80
2021/07/10 00:44:13;;;;;;;4.23;3.83;;;;;;;17.70;93.19;100608.11;5131982;56;1138938;-85
2021/07/10 00:49:19;;;;;;;5.97;4.92;;;;;;;17.72;93.15;100609.59;5131778;56;1138664;-79
2021/07/10 00:54:24;;;;;;;6.33;5.70;;;;;;;17.73;93.07;100608.59;5128581;56;1138751;-82
2021/07/10 00:59:33;;;;;;;5.12;4.62;;;;;;;17.77;92.96;100607.78;5128040;56;1138695;-80
2021/07/10 01:04:39;;;;;;;4.62;3.33;;;;;;;17.83;92.61;100599.95;5128267;56;1138734;-81
2021/07/10 01:09:45;;;;;;;4.28;3.83;;;;;;;17.83;92.22;100595.94;5117923;55;1138976;-84
2021/07/10 01:14:51;;;;;;;4.97;4.50;;;;;;;17.75;91.90;100587.03;5148431;55;1138938;-83
2021/07/10 01:20:13;;;;;;;3.97;3.67;;;;;;;17.71;92.03;100591.06;5152412;55;1138929;-86
2021/07/10 01:25:19;;;;;;;5.90;4.25;;;;;;;17.71;92.14;100593.24;5151386;55;1138802;-84
2021/07/10 01:30:26;;;;;;;5.77;4.33;;;;;;;17.69;92.17;100586.37;5152263;55;1138905;-86
2021/07/10 01:35:32;;;;;;;5.27;4.57;;;;;;;17.73;92.11;100599.23;5171257;55;1139004;-81
2021/07/10 01:40:39;;;;;;;6.47;5.03;;;;;;;17.67;91.84;100591.88;5188212;55;1138766;-79
2021/07/10 01:45:46;;;;;;;6.20;4.60;;;;;;;17.61;91.85;100595.66;5208325;55;1138881;-81
2021/07/10 01:50:52;;;;;;;5.10;4.20;;;;;;;17.52;91.94;100586.29;5172812;55;1138751;-86
2021/07/10 01:55:58;;;;;;;5.80;4.90;;;;;;;17.44;91.58;100601.45;5188777;55;1138789;-80
2021/07/10 02:01:04;;;;;;;9.67;3.97;;;;;;;17.39;92.04;100600.62;5190022;55;1138736;-86
2021/07/10 02:06:10;;;;;;;5.67;3.93;;;;;;;17.37;92.35;100610.63;5190923;55;1138756;-80
2021/07/10 02:11:16;;;;;;;8.03;3.30;;;;;;;17.34;92.51;100619.46;5167357;55;1138996;-85
2021/07/10 02:16:22;;;;;;;3.57;2.53;;;;;;;17.28;92.53;100636.97;5171112;55;1138909;-81
2021/07/10 02:21:28;;;;;;;2.23;2.13;;;;;;;17.13;93.30;100627.86;5195942;55;1138940;-82
2021/07/10 02:26:33;;;;;;;5.67;2.70;;;;;;;17.00;93.56;100640.81;5217426;55;1138667;-77
2021/07/10 02:31:39;;;;;;;3.63;2.63;;;;;;;16.92;93.66;100654.14;5223004;55;1138909;-83
2021/07/10 02:36:45;;;;;;;5.50;2.23;;;;;;;16.90;93.91;100660.97;5215913;55;1138755;-77
2021/07/10 02:41:51;;;;;;;8.14;2.04;;;;;;;16.87;94.13;100672.80;5225675;55;1138853;-80
2021/07/10 02:46:57;;;;;;;1.95;1.82;;;;;;;16.85;95.02;100668.60;5209173;55;1138723;-78
2021/07/10 02:52:07;;;;;;;1.65;1.55;;;;;;;16.82;94.74;100664.91;5208516;55;1138739;-82
2021/07/10 02:57:11;;;;;;;5.90;2.17;;;;;;;16.81;94.89;100659.22;5176632;55;1138912;-81
2021/07/10 03:02:17;;;;;;;3.63;2.00;;;;;;;16.75;95.02;100658.02;5152099;55;1138761;-83
2021/07/10 03:07:22;;;;;;;2.63;1.97;;;;;;;16.67;95.67;100666.45;5151653;55;1138912;-80
2021/07/10 03:12:27;;;;;;;2.17;2.07;;;;;;;16.62;96.33;100672.25;5137216;55;1138792;-82
2021/07/10 03:17:33;;;;;;;1.53;1.37;;;;;;;16.57;96.71;100658.51;5127666;56;1138946;-81
2021/07/10 03:22:39;;;;;;;2.10;1.97;;;;;;;16.53;97.09;100651.30;5128411;56;1138729;-82
2021/07/10 03:27:47;;;;;;;1.27;1.23;;;;;;;16.51;97.18;100648.43;5129161;56;1139156;-79
2021/07/10 03:32:53;;;;;;;1.33;1.13;;;;;;;16.50;97.65;100644.92;5129519;56;1139036;-78
2021/07/10 03:38:00;;;;;;;1.82;1.27;;;;;;;16.46;97.78;100644.07;5129250;56;1139218;-83
2021/07/10 03:43:06;;;;;;;1.97;1.20;;;;;;;16.41;98.04;100645.02;5129160;56;1139166;-81
2021/07/10 03:48:11;;;;;;;0.88;0.88;;;;;;;16.41;98.16;100633.00;5128563;56;1138949;-79
2021/07/10 03:53:17;;;;;;;1.20;1.10;;;;;;;16.42;98.50;100642.20;5127915;56;1138777;-79
2021/07/10 03:58:22;;;;;;;3.10;1.67;;;;;;;16.39;98.42;100649.67;5128731;56;1138752;-80
2021/07/10 04:03:28;;;;;;;4.87;1.20;;;;;;;16.38;98.43;100640.81;5137721;55;1138912;-77
2021/07/10 04:08:34;;;;;;;0.80;0.80;;;;;;;16.32;98.62;100633.94;5139050;55;1138804;-81
2021/07/10 04:13:39;;;;;;;1.10;1.00;;;;;;;16.36;98.65;100650.80;5151427;55;1138909;-84
2021/07/10 04:18:45;;;;;;;1.33;0.70;;;;;;;16.37;98.47;100656.98;5150411;55;1139030;-81
2021/07/10 04:23:52;;;;;;;0.83;0.70;;;;;;;16.35;98.45;100659.80;5166910;55;1138950;-83
2021/07/10 04:28:58;;;;;;;0.83;0.50;;;;;;;16.33;98.28;100665.81;5156200;55;1138882;-80
2021/07/10 04:34:04;;;;;;;1.55;0.62;;;;;;;16.38;98.19;100674.68;5144673;55;1138981;-82
2021/07/10 04:39:10;;;;;;;2.03;1.17;;;;;;;16.41;97.86;100669.05;5149112;55;1139041;-78
2021/07/10 04:44:16;;;;;;;1.17;0.80;;;;;;;16.44;97.58;100664.24;5156595;55;1138642;-81
2021/07/10 04:49:22;;;;;;;0.97;0.53;;;;;;;16.47;97.28;100677.30;5130260;56;1138812;-84
2021/07/10 04:54:27;;;;;;;0.82;0.56;;;;;;;16.54;97.10;100682.34;5135320;55;1138774;-80
2021/07/10 04:59:33;;;;;;;1.13;1.13;;;;;;;16.56;96.99;100690.70;5128998;56;1138765;-83
2021/07/10 05:04:39;;;;;;;1.70;0.63;;;;;;;16.54;96.78;100690.36;5154810;55;1138736;-74
2021/07/10 05:09:45;;;;;;;0.70;0.70;;;;;;;16.55;96.84;100687.19;5140493;55;1138780;-82
2021/07/10 05:14:52;;;;;;;0.40;0.40;;;;;;;16.56;96.82;100693.38;5216433;55;1138989;-76
2021/07/10 05:19:58;;;;;;;0.60;0.33;;;;;;;16.51;96.47;100694.66;5217139;55;1138820;-77
2021/07/10 05:25:05;;;;;;;3.33;0.43;;;;;;;16.52;96.67;100694.17;5216633;55;1148384;-79
2021/07/10 05:30:18;;;;;;;0.40;0.30;;;;;;;16.44;96.17;100688.77;5216030;55;1138843;-78
2021/07/10 05:35:25;;;;;;;0.45;0.45;;;;;;;16.39;96.29;100699.05;5215983;55;1138755;-75
2021/07/10 05:40:30;;;;;;;0.57;0.40;;;;;;;16.36;96.03;100703.35;5211167;55;1138836;-80
2021/07/10 05:45:36;;;;;;;0.20;0.20;;;;;;;16.31;96.14;100702.50;5216009;55;1138814;-78
2021/07/10 05:50:41;;;;;;;1.60;0.50;;;;;;;16.34;96.29;100706.70;5215956;55;1138702;-80
2021/07/10 05:55:47;;;;;;;1.67;0.30;;;;;;;16.34;96.17;100710.70;5215916;55;1138987;-80
2021/07/10 06:00:53;;;;;;;1.80;0.40;;;;;;;16.37;96.03;100717.88;5217088;55;1138885;-79
2021/07/10 06:05:59;;;;;;;0.45;0.35;;;;;;;16.36;95.53;100719.37;5217837;55;1138743;-75
2021/07/10 06:11:05;;;;;;;2.87;0.27;;;;;;;16.35;95.66;100725.20;5183784;55;1138953;-78
2021/07/10 06:16:11;;;;;;;0.43;0.30;;;;;;;16.37;95.51;100725.89;5130784;56;1138722;-75
2021/07/10 06:21:17;;;;;;;0.30;0.30;;;;;;;16.37;95.38;100741.91;5181709;55;1138941;-80
2021/07/10 06:26:23;;;;;;;4.23;0.40;;;;;;;16.36;95.11;100753.58;5153302;55;1138766;-84
2021/07/10 06:31:29;;;;;;;0.90;0.40;;;;;;;16.36;94.97;100767.41;5190079;55;1138854;-82
2021/07/10 06:36:35;;;;;;;0.93;0.40;;;;;;;16.35;94.82;100769.73;5212597;55;1138698;-81
2021/07/10 06:41:40;;;;;;;4.30;0.47;;;;;;;16.36;94.95;100763.41;5226248;55;1138663;-80
2021/07/10 06:46:46;;;;;;;6.17;3.10;;;;;;;16.36;94.77;100772.27;5226307;55;1138674;-75
2021/07/10 06:51:52;;;;;;;5.43;1.17;;;;;;;16.34;94.91;100765.42;5214741;55;1138784;-79
2021/07/10 06:56:57;;;;;;;1.77;1.25;;;;;;;16.34;95.21;100764.92;5209878;55;1138822;-77
2021/07/10 07:02:03;;;;;;;1.98;1.12;;;;;;;16.34;94.96;100774.27;5226398;54;1139116;-80
2021/07/10 07:07:09;;;;;;;0.80;0.77;;;;;;;16.37;94.98;100775.77;5226447;55;1139233;-81
2021/07/10 07:12:15;;;;;;;1.07;1.00;;;;;;;16.38;95.05;100781.45;5171315;55;1138712;-80
2021/07/10 07:17:20;;;;;;;2.27;1.03;;;;;;;16.45;94.99;100783.89;5138804;55;1138893;-81
2021/07/10 07:22:26;;;;;;;4.10;1.13;;;;;;;16.53;95.17;100793.30;5161898;55;1138677;-77
2021/07/10 07:27:32;;;;;;;9.10;1.50;;;;;;;16.56;94.54;100795.68;5160675;55;1138846;-77
2021/07/10 07:32:38;;;;;;;1.10;0.80;;;;;;;16.58;94.48;100800.38;5138749;56;1138760;-74
2021/07/10 07:37:45;;;;;;;0.80;0.80;;;;;;;16.62;94.39;100804.93;5138790;56;1138683;-79
2021/07/10 07:42:51;;;;;;;8.63;1.30;;;;;;;16.61;93.95;100816.11;5132423;56;1138844;-76
2021/07/10 07:47:57;;;;;;;6.73;2.30;;;;;;;16.61;93.95;100816.11;5159404;55;1138742;-77
2021/07/10 07:53:04;;;;;;;1.85;1.72;;;;;;;16.57;93.60;100818.72;5181338;55;1138671;-81
2021/07/10 07:58:10;;;;;;;2.37;1.85;;;;;;;16.56;93.73;100830.39;5163338;55;1138900;-89
2021/07/10 08:03:15;;;;;;;1.50;1.40;;;;;;;16.55;93.74;100815.36;5134983;55;1138729;-86
2021/07/10 08:08:21;;;;;;;2.00;1.80;;;;;;;16.58;93.71;100813.73;5085180;56;1138710;-81
2021/07/10 08:13:27;;;;;;;4.73;1.83;;;;;;;16.57;93.52;100823.22;5207639;55;1139075;-80
2021/07/10 08:18:33;;;;;;;6.27;2.83;;;;;;;16.65;93.77;100826.03;5227141;55;1138836;-82
2021/07/10 08:23:39;;;;;;;1.83;1.50;;;;;;;16.77;93.92;100829.66;5227101;55;1138949;-83
2021/07/10 08:28:45;;;;;;;4.00;1.80;;;;;;;16.95;93.69;100827.01;5227175;55;1138745;-78
2021/07/10 08:33:50;;;;;;;4.30;1.73;;;;;;;17.15;91.95;100824.99;5216513;55;1138892;-85
2021/07/10 08:38:56;;;;;;;2.37;2.00;;;;;;;17.27;92.00;100823.75;5214519;55;1139075;-78
2021/07/10 08:44:02;;;;;;;2.65;1.80;;;;;;;17.37;91.45;100826.36;5204281;55;1139107;-82
2021/07/10 08:49:09;;;;;;;4.95;1.62;;;;;;;17.53;90.66;100834.50;5140881;55;1138931;-82
2021/07/10 08:54:15;;;;;;;2.33;1.30;;;;;;;17.71;89.35;100838.02;5140998;56;1138635;-85
2021/07/10 08:59:21;;;;;;;6.17;1.80;;;;;;;17.90;90.73;100846.30;5141295;56;1138717;-87
2021/07/10 09:04:27;;;;;;;1.77;1.63;;;;;;;17.93;88.31;100852.68;5141104;56;1138689;-79
2021/07/10 09:09:48;;;;;;;5.93;1.60;;;;;;;17.89;87.43;100862.85;5146099;56;1138813;-78
2021/07/10 09:14:54;;;;;;;1.50;1.50;;;;;;;17.87;87.71;100870.72;5202451;55;1138976;-84
2021/07/10 09:20:05;;;;;;;1.80;1.70;;;;;;;17.85;86.71;100878.06;5181545;55;1138712;-81
2021/07/10 09:25:27;;;;;;;1.70;1.60;;;;;;;17.90;87.68;100879.25;5170686;55;1138956;-84
2021/07/10 09:30:42;;;;;;;7.50;1.97;;;;;;;17.99;87.84;100881.50;5196875;55;1138883;-78
2021/07/10 09:36:00;;;;;;;2.20;1.70;;;;;;;18.07;87.65;100878.02;5197098;55;1138873;-85
2021/07/10 09:41:10;;;;;;;3.15;2.00;;;;;;;18.10;87.13;100881.72;5197757;55;1138938;-84
2021/07/10 09:46:27;;;;;;;5.03;2.10;;;;;;;18.18;87.26;100882.59;5202347;55;1138775;-77
2021/07/10 09:51:33;;;;;;;3.90;2.42;;;;;;;18.35;88.20;100884.84;5226857;55;1138763;-83
2021/07/10 09:56:42;;;;;;;7.78;1.52;;;;;;;18.67;85.33;100886.86;5226601;55;1138930;-87
2021/07/10 10:01:50;;;;;;;4.75;1.30;;;;;;;19.01;85.82;100882.77;5223286;55;1138690;-81
2021/07/10 10:06:58;;;;;;;3.85;1.80;;;;;;;19.17;83.54;100888.66;5226399;55;1138854;-83
2021/07/10 10:12:16;;;;;;;8.93;1.87;;;;;;;19.18;81.48;100899.22;5226493;55;1138671;-83
2021/07/10 10:17:25;;;;;;;2.45;1.30;;;;;;;19.19;81.90;100901.41;5225962;55;1138687;-81
2021/07/10 10:22:31;;;;;;;1.35;1.17;;;;;;;19.20;82.06;100902.58;5226458;55;1138858;-85
2021/07/10 10:27:37;;;;;;;19.37;7.35;;;;;;;19.22;81.12;100897.89;5225304;55;1138764;-80
2021/07/10 10:32:45;;;;;;;2.60;1.60;;;;;;;19.31;83.02;100882.14;5225976;55;1140887;-83
2021/07/10 10:37:51;;;;;;;3.72;2.33;;;;;;;19.55;80.96;100884.53;5226493;55;1138894;-87
2021/07/10 10:43:00;;;;;;;3.17;2.30;;;;;;;19.59;80.47;100889.38;5206661;55;1138654;-86
2021/07/10 10:48:06;;;;;;;1.80;1.70;;;;;;;19.60;79.10;100890.22;5226993;55;1139138;-81
2021/07/10 10:53:24;;;;;;;6.42;1.90;;;;;;;19.60;80.45;100894.23;5228653;55;1138665;-79
2021/07/10 10:58:32;;;;;;;3.17;1.72;;;;;;;19.66;81.11;100893.08;5229284;55;1139000;-85
2021/07/10 11:03:40;;;;;;;5.50;2.50;;;;;;;19.82;80.29;100897.59;5220651;55;1138688;-80
2021/07/10 11:08:53;;;;;;;4.92;1.65;;;;;;;19.83;78.04;100899.77;5153841;55;1138870;-78
2021/07/10 11:14:10;;;;;;;11.10;3.08;;;;;;;19.90;76.54;100893.54;5195315;56;1138767;-83
2021/07/10 11:19:16;;;;;;;2.02;1.90;;;;;;;20.03;77.84;100890.32;5196691;55;1140895;-82
2021/07/10 11:24:25;;;;;;;3.08;2.17;;;;;;;20.11;75.81;100886.30;5196924;55;1138913;-79
2021/07/10 11:29:37;;;;;;;1.87;1.47;;;;;;;20.35;74.41;100889.39;5193853;55;1138778;-82
2021/07/10 11:34:57;;;;;;;1.53;1.40;;;;;;;20.58;75.85;100891.70;5186171;55;1138746;-75
2021/07/10 11:40:05;;;;;;;5.44;2.08;;;;;;;20.88;72.15;100888.69;5188532;55;1139122;-78
2021/07/10 11:45:24;;;;;;;2.17;1.60;;;;;;;20.91;72.83;100897.75;5197700;55;1143601;-82
2021/07/10 11:50:38;;;;;;;3.85;1.52;;;;;;;21.00;71.27;100899.37;5214433;55;1138726;-77
2021/07/10 11:55:45;;;;;;;2.02;1.87;;;;;;;20.94;72.49;100898.72;5216380;55;1138917;-81
2021/07/10 12:00:51;;;;;;;4.97;1.47;;;;;;;20.94;72.49;100898.72;5216741;55;1138912;-81
2021/07/10 12:05:58;;;;;;;7.25;2.05;;;;;;;20.89;71.98;100903.81;5218549;55;1138896;-80
2021/07/10 12:11:03;;;;;;;5.53;1.40;;;;;;;20.81;72.50;100900.31;5191087;55;1138921;-76
2021/07/10 12:16:10;;;;;;;1.77;1.32;;;;;;;20.73;71.75;100909.27;5216876;55;1139044;-79
2021/07/10 12:21:16;;;;;;;7.90;1.98;;;;;;;20.69;72.63;100914.66;5190639;55;1138774;-83
2021/07/10 12:26:26;;;;;;;2.87;2.00;;;;;;;20.80;73.99;100914.26;5199964;55;1138747;-78
2021/07/10 12:31:36;;;;;;;7.22;1.62;;;;;;;21.17;74.12;100905.99;5225912;55;1138807;-75
2021/07/10 12:36:46;;;;;;;6.83;1.70;;;;;;;21.59;74.09;100893.42;5221042;55;1138626;-80
2021/07/10 12:42:04;;;;;;;2.00;1.80;;;;;;;21.72;70.39;100897.67;5226056;55;1138785;-79
2021/07/10 12:47:22;;;;;;;30.88;7.55;;;;;;;21.64;70.78;100897.25;5225749;55;1138944;-80
2021/07/10 12:52:50;;;;;;;12.58;2.62;;;;;;;21.53;72.54;100904.92;5225531;55;1140753;-77
2021/07/10 12:57:57;;;;;;;2.50;2.20;;;;;;;21.60;72.26;100895.09;5216844;55;1141170;-79
2021/07/10 13:03:07;;;;;;;9.78;2.40;;;;;;;21.89;71.53;100893.81;5194779;55;1138795;-83
2021/07/10 13:08:24;;;;;;;6.08;2.25;;;;;;;22.27;70.62;100895.98;5203796;55;1139056;-78
2021/07/10 13:13:43;;;;;;;1.70;1.60;;;;;;;22.06;67.89;100889.97;5170109;55;1138843;-84
2021/07/10 13:18:55;;;;;;;1.92;1.77;;;;;;;22.06;67.89;100889.97;5162213;55;1138727;-81
2021/07/10 13:24:11;;;;;;;2.90;2.20;;;;;;;21.93;68.23;100902.37;5222473;55;1138713;-86
2021/07/10 13:29:21;;;;;;;2.30;1.92;;;;;;;21.98;69.06;100897.27;5226839;55;1138798;-79
2021/07/10 13:34:32;;;;;;;2.25;1.90;;;;;;;22.20;69.32;100895.54;5226646;55;1138773;-80
2021/07/10 13:39:42;;;;;;;3.37;2.33;;;;;;;22.35;65.81;100897.73;5226661;55;1138888;-86
2021/07/10 13:44:48;;;;;;;2.88;1.92;;;;;;;22.41;66.07;100899.17;4975310;58;1139128;-82
2021/07/10 13:50:01;;;;;;;4.90;2.20;;;;;;;22.37;66.75;100891.13;5147436;56;1138868;-85
2021/07/10 13:55:15;;;;;;;5.92;2.30;;;;;;;22.40;67.07;100894.81;5145755;56;1138907;-83
2021/07/10 14:00:29;;;;;;;4.22;2.33;;;;;;;22.68;67.80;100884.17;5124952;56;1138912;-83
2021/07/10 14:05:39;;;;;;;3.22;1.87;;;;;;;22.83;64.94;100887.38;5125002;56;1138840;-82
2021/07/10 14:10:48;;;;;;;1.92;1.82;;;;;;;23.01;64.87;100886.45;5139300;55;1138800;-86
2021/07/10 14:15:57;;;;;;;5.00;2.52;;;;;;;23.41;61.13;100893.91;5143082;56;1139160;-83
2021/07/10 14:21:03;;;;;;;2.15;1.85;;;;;;;23.49;60.37;100891.09;5143264;56;1138828;-93
2021/07/10 14:26:09;;;;;;;6.33;1.87;;;;;;;23.69;61.94;100890.44;5128309;56;1138956;-89
2021/07/10 14:31:15;;;;;;;7.67;4.42;;;;;;;23.77;58.41;100880.34;5097672;56;1138844;-84
2021/07/10 14:36:21;;;;;;;2.87;2.08;;;;;;;23.73;60.22;100883.11;5109058;56;1138875;-78
2021/07/10 14:41:27;;;;;;;2.52;2.35;;;;;;;23.64;59.73;100873.48;5098378;56;1138656;-88
2021/07/10 14:46:33;;;;;;;2.40;1.82;;;;;;;23.79;59.02;100876.09;5138003;56;1138684;-78
2021/07/10 14:51:39;;;;;;;7.65;2.85;;;;;;;23.94;58.41;100866.54;5132969;55;1138904;-82
2021/07/10 14:56:44;;;;;;;2.27;2.05;;;;;;;23.87;58.11;100873.23;5141472;55;1138910;-81
2021/07/10 15:01:50;;;;;;;2.47;2.27;;;;;;;24.02;56.18;100866.37;5208181;55;1138797;-81
2021/07/10 15:06:55;;;;;;;1.50;1.40;;;;;;;24.20;58.60;100862.64;5178706;55;1138699;-80
2021/07/10 15:12:02;;;;;;;15.65;2.15;;;;;;;24.45;57.16;100861.13;5178317;55;1138906;-84
2021/07/10 15:17:08;;;;;;;4.50;1.40;;;;;;;24.52;53.71;100859.30;5161054;55;1140818;-80
2021/07/10 15:22:13;;;;;;;5.40;2.10;;;;;;;24.49;53.11;100858.34;5226895;55;1139059;-88
2021/07/10 15:27:19;;;;;;;1.80;1.70;;;;;;;24.62;55.00;100856.72;5202508;55;1139005;-86
2021/07/10 15:32:25;;;;;;;1.82;1.72;;;;;;;24.56;52.39;100857.03;5169980;55;1138841;-80
2021/07/10 15:37:31;;;;;;;1.75;1.62;;;;;;;24.35;54.42;100859.83;5162613;55;1138745;-81
2021/07/10 15:42:38;;;;;;;2.33;2.22;;;;;;;24.48;55.78;100852.61;5165063;55;1138733;-80
2021/07/10 15:47:45;;;;;;;1.82;1.72;;;;;;;24.63;55.03;100855.69;5187556;55;1138718;-82
2021/07/10 15:52:52;;;;;;;1.37;1.37;;;;;;;24.71;52.51;100856.88;5173302;55;1138653;-85
2021/07/10 15:57:57;;;;;;;4.08;3.77;;;;;;;24.73;52.59;100859.70;5177102;55;1139024;-87
2021/07/10 16:03:05;;;;;;;2.92;1.80;;;;;;;24.75;54.36;100859.50;5179525;55;1138937;-82
2021/07/10 16:08:11;;;;;;;1.82;1.70;;;;;;;24.79;54.19;100862.92;5215786;55;1138890;-90
2021/07/10 16:13:17;;;;;;;4.53;2.00;;;;;;;24.75;53.02;100858.14;5189554;55;1138693;-89
2021/07/10 16:18:22;;;;;;;2.77;2.60;;;;;;;24.64;53.78;100867.66;5177561;55;1138743;-81
2021/07/10 16:23:28;;;;;;;2.52;2.25;;;;;;;24.71;54.82;100871.23;5170823;55;1138634;-84
2021/07/10 16:28:35;;;;;;;4.78;2.33;;;;;;;24.84;53.83;100867.73;5199815;55;1138570;-76
2021/07/10 16:33:40;;;;;;;6.37;2.20;;;;;;;24.78;53.29;100868.02;5189877;55;1139101;-86
2021/07/10 16:38:46;;;;;;;5.67;3.02;;;;;;;24.57;53.16;100875.45;5189953;55;1138304;-81
2021/07/10 16:43:52;;;;;;;2.05;1.95;;;;;;;24.42;54.69;100875.59;5183799;55;1138887;-82
2021/07/10 16:48:57;;;;;;;8.40;2.40;;;;;;;24.39;55.22;100873.28;5169244;55;1138989;-83
2021/07/10 16:54:03;;;;;;;1.82;1.72;;;;;;;24.30;54.58;100873.95;5169437;55;1139056;-82
2021/07/10 16:59:08;;;;;;;3.30;2.27;;;;;;;24.19;54.63;100867.72;5116593;56;1138862;-83
2021/07/10 17:04:14;;;;;;;2.12;2.02;;;;;;;24.09;55.10;100867.26;5140774;55;1138774;-84
2021/07/10 17:09:20;;;;;;;8.95;2.65;;;;;;;24.06;56.09;100870.35;5188667;55;1139119;-80
2021/07/10 17:14:27;;;;;;;8.23;2.67;;;;;;;23.99;56.27;100868.11;5130341;56;1139001;-80
2021/07/10 17:19:32;;;;;;;3.33;2.87;;;;;;;23.94;56.65;100874.13;5130505;56;1139443;-82
2021/07/10 17:24:37;;;;;;;3.17;2.60;;;;;;;23.90;57.80;100871.49;5130222;56;1138933;-79
2021/07/10 17:29:43;;;;;;;5.30;2.62;;;;;;;23.93;57.85;100875.67;5128805;56;1138729;-83
2021/07/10 17:34:49;;;;;;;4.35;2.42;;;;;;;23.92;57.85;100882.11;5129325;56;1138693;-79
2021/07/10 17:39:55;;;;;;;3.58;2.42;;;;;;;23.95;57.37;100877.66;5130390;56;1138766;-80
2021/07/10 17:45:01;;;;;;;7.17;3.27;;;;;;;23.98;57.54;100890.27;5130405;56;1139022;-78
2021/07/10 17:50:10;;;;;;;7.47;2.60;;;;;;;23.98;58.21;100893.48;5133438;56;1138973;-80
2021/07/10 17:55:17;;;;;;;13.00;3.15;;;;;;;24.00;58.87;100893.58;5140300;55;1138832;-83
2021/07/10 18:00:27;;;;;;;6.90;3.27;;;;;;;23.95;58.67;100892.52;5161916;55;1141232;-86
2021/07/10 18:05:32;;;;;;;3.30;3.00;;;;;;;23.87;59.10;100900.25;5161898;55;1138804;-80
2021/07/10 18:10:38;;;;;;;7.00;3.72;;;;;;;23.77;59.34;100907.87;5155083;55;1138924;-84
